Time;durP1;ratioP1;P1;durP2;ratioP2;P2;SDS_P1;SDS_P2;PMS_P1;PMS_P2;Temp;Humidity;BMP_temperature;BMP_pressure;BME280_temperature;BME280_humidity;BME280_pressure;Samples;Min_cycle;Max_cycle;Signal;HPM_P1;HPM_P2
2023/09/23 00:00:13;;;;;;;0.10;0.10;;;;;;;;;;5019888;28;20037;-83
2023/09/23 00:02:43;;;;;;;0.88;0.10;;;;;;;;;;5015963;28;20030;-84
2023/09/23 00:05:11;;;;;;;0.77;0.20;;;;;;;;;;5005020;28;20052;-83
2023/09/23 00:07:41;;;;;;;0.22;0.20;;;;;;;;;;5001190;28;20093;-83
2023/09/23 00:10:08;;;;;;;0.08;0.08;;;;;;;;;;5002266;28;20108;-84
2023/09/23 00:12:38;;;;;;;0.68;0.20;;;;;;;;;;5010989;28;20076;-81
2023/09/23 00:15:05;;;;;;;0.55;0.15;;;;;;;;;;5021364;28;20121;-82
2023/09/23 00:17:31;;;;;;;0.10;0.10;;;;;;;;;;5006524;28;20038;-81
2023/09/23 00:19:57;;;;;;;0.10;0.10;;;;;;;;;;5003757;28;20080;-84
2023/09/23 00:22:23;;;;;;;1.45;0.13;;;;;;;;;;5000880;28;20046;-82
2023/09/23 00:24:50;;;;;;;0.20;0.17;;;;;;;;;;4998293;28;20108;-82
2023/09/23 00:27:17;;;;;;;0.75;0.20;;;;;;;;;;4997215;28;20077;-82
2023/09/23 00:29:44;;;;;;;1.58;0.20;;;;;;;;;;4997262;28;20030;-81
2023/09/23 00:32:12;;;;;;;0.20;0.20;;;;;;;;;;5011116;28;20033;-84
2023/09/23 00:34:38;;;;;;;0.32;0.10;;;;;;;;;;5019352;28;20488;-86
2023/09/23 00:37:04;;;;;;;0.10;0.10;;;;;;;;;;5028973;28;20045;-84
2023/09/23 00:39:30;;;;;;;0.10;0.10;;;;;;;;;;5010011;28;20038;-85
2023/09/23 00:41:55;;;;;;;0.30;0.30;;;;;;;;;;5029372;28;20129;-86
2023/09/23 00:44:20;;;;;;;0.43;0.20;;;;;;;;;;5011614;28;20088;-85
2023/09/23 00:46:46;;;;;;;2.30;0.20;;;;;;;;;;5003262;28;20057;-86
2023/09/23 00:49:12;;;;;;;0.17;0.13;;;;;;;;;;5018415;28;20412;-85
2023/09/23 00:51:39;;;;;;;0.20;0.20;;;;;;;;;;5005451;28;20049;-84
2023/09/23 00:54:09;;;;;;;0.75;0.30;;;;;;;;;;5015114;28;20095;-85
2023/09/23 00:56:36;;;;;;;1.20;0.20;;;;;;;;;;5003592;28;20065;-84
2023/09/23 00:59:06;;;;;;;1.45;0.20;;;;;;;;;;5010763;28;20521;-85
2023/09/23 01:01:31;;;;;;;1.48;0.20;;;;;;;;;;5010888;28;20077;-85
2023/09/23 01:03:57;;;;;;;1.27;0.20;;;;;;;;;;5007012;28;20038;-85
2023/09/23 01:06:26;;;;;;;0.38;0.30;;;;;;;;;;5019708;28;20034;-84
2023/09/23 01:08:54;;;;;;;0.55;0.10;;;;;;;;;;5006481;28;20183;-85
2023/09/23 01:11:21;;;;;;;1.38;0.13;;;;;;;;;;5011193;28;20061;-84
2023/09/23 01:13:51;;;;;;;0.28;0.20;;;;;;;;;;5006700;28;20042;-85
2023/09/23 01:16:17;;;;;;;1.75;0.22;;;;;;;;;;5021921;28;20042;-84
2023/09/23 01:18:45;;;;;;;0.30;0.20;;;;;;;;;;5010339;28;20038;-83
2023/09/23 01:21:12;;;;;;;0.28;0.28;;;;;;;;;;5026347;28;20034;-83
2023/09/23 01:23:38;;;;;;;0.75;0.20;;;;;;;;;;5005717;28;20034;-84
2023/09/23 01:26:04;;;;;;;0.10;0.10;;;;;;;;;;5009671;28;20049;-84
2023/09/23 01:28:32;;;;;;;0.60;0.40;;;;;;;;;;5018274;28;20030;-84
2023/09/23 01:30:59;;;;;;;0.30;0.20;;;;;;;;;;5004102;28;20061;-84
2023/09/23 01:33:26;;;;;;;0.20;0.20;;;;;;;;;;5006602;28;20105;-85
2023/09/23 01:35:56;;;;;;;0.30;0.10;;;;;;;;;;5010580;28;20408;-84
2023/09/23 01:38:22;;;;;;;0.10;0.10;;;;;;;;;;5028154;28;20488;-84
2023/09/23 01:40:47;;;;;;;0.10;0.10;;;;;;;;;;5013706;28;20061;-84
2023/09/23 01:43:14;;;;;;;0.52;0.20;;;;;;;;;;5025899;28;20408;-86
2023/09/23 01:45:40;;;;;;;0.38;0.20;;;;;;;;;;5004458;28;20053;-83
2023/09/23 01:48:06;;;;;;;1.10;0.20;;;;;;;;;;5012368;28;20250;-85
2023/09/23 01:50:31;;;;;;;0.70;0.30;;;;;;;;;;5020470;28;20041;-83
2023/09/23 01:52:59;;;;;;;0.65;0.30;;;;;;;;;;5028520;28;20041;-86
2023/09/23 01:55:25;;;;;;;0.60;0.17;;;;;;;;;;4993741;28;20041;-84
2023/09/23 01:57:51;;;;;;;0.60;0.30;;;;;;;;;;5025190;28;20065;-83
2023/09/23 02:00:17;;;;;;;0.25;0.20;;;;;;;;;;5026580;28;20045;-85
2023/09/23 02:02:48;;;;;;;0.20;0.17;;;;;;;;;;5007575;28;20045;-84
2023/09/23 02:05:15;;;;;;;1.15;0.20;;;;;;;;;;5005968;28;20049;-84
2023/09/23 02:07:41;;;;;;;0.13;0.13;;;;;;;;;;5021485;28;20039;-85
2023/09/23 02:10:09;;;;;;;2.05;0.22;;;;;;;;;;5000703;28;20036;-85
2023/09/23 02:12:35;;;;;;;2.60;0.25;;;;;;;;;;5001843;28;20061;-85
2023/09/23 02:15:00;;;;;;;1.85;0.20;;;;;;;;;;5004038;28;20132;-82
2023/09/23 02:17:26;;;;;;;4.72;0.30;;;;;;;;;;5008747;28;20069;-83
2023/09/23 02:19:52;;;;;;;0.28;0.17;;;;;;;;;;5005384;28;20484;-84
2023/09/23 02:22:18;;;;;;;1.70;0.20;;;;;;;;;;5001618;28;20038;-82
2023/09/23 02:24:44;;;;;;;0.30;0.20;;;;;;;;;;5004042;28;20044;-83
2023/09/23 02:27:10;;;;;;;0.88;0.30;;;;;;;;;;4995094;28;20412;-84
2023/09/23 02:29:35;;;;;;;0.85;0.30;;;;;;;;;;4993094;28;20506;-83
2023/09/23 02:32:01;;;;;;;0.50;0.13;;;;;;;;;;4994889;28;20034;-84
2023/09/23 02:34:30;;;;;;;0.20;0.20;;;;;;;;;;5019943;28;20061;-85
2023/09/23 02:36:56;;;;;;;0.20;0.10;;;;;;;;;;5008737;28;20444;-82
2023/09/23 02:39:22;;;;;;;0.22;0.10;;;;;;;;;;5009178;28;20069;-84
2023/09/23 02:41:49;;;;;;;0.17;0.10;;;;;;;;;;5010642;28;20042;-86
2023/09/23 02:44:20;;;;;;;0.10;0.10;;;;;;;;;;4999406;28;20034;-84
2023/09/23 02:46:54;;;;;;;2.33;0.20;;;;;;;;;;5014971;28;20030;-83
2023/09/23 02:49:20;;;;;;;0.10;0.10;;;;;;;;;;5007391;28;20507;-82
2023/09/23 02:51:45;;;;;;;0.13;0.13;;;;;;;;;;5013464;28;20030;-85
2023/09/23 02:54:18;;;;;;;0.80;0.10;;;;;;;;;;4999725;28;20056;-85
2023/09/23 02:56:46;;;;;;;2.28;0.20;;;;;;;;;;5005393;28;20034;-85
2023/09/23 02:59:21;;;;;;;0.22;0.10;;;;;;;;;;5004707;28;20038;-84
2023/09/23 03:01:51;;;;;;;0.25;0.10;;;;;;;;;;5003898;28;20042;-83
2023/09/23 03:04:23;;;;;;;0.20;0.20;;;;;;;;;;5007784;28;20049;-84
2023/09/23 03:06:50;;;;;;;0.45;0.13;;;;;;;;;;5007481;28;20042;-83
2023/09/23 03:09:23;;;;;;;0.20;0.10;;;;;;;;;;4997581;28;20034;-84
2023/09/23 03:11:55;;;;;;;1.33;0.20;;;;;;;;;;4994960;28;20072;-83
2023/09/23 03:14:28;;;;;;;0.25;0.20;;;;;;;;;;5001381;28;20038;-84
2023/09/23 03:16:57;;;;;;;0.30;0.20;;;;;;;;;;5013202;28;20037;-85
2023/09/23 03:19:26;;;;;;;0.52;0.30;;;;;;;;;;5007582;28;20134;-83
2023/09/23 03:21:55;;;;;;;0.55;0.20;;;;;;;;;;5004218;28;20117;-85
2023/09/23 03:24:25;;;;;;;1.15;0.25;;;;;;;;;;5018705;28;20404;-83
2023/09/23 03:27:00;;;;;;;0.10;0.10;;;;;;;;;;4997939;28;20068;-82
2023/09/23 03:29:30;;;;;;;0.57;0.50;;;;;;;;;;5012588;28;20035;-81
2023/09/23 03:31:57;;;;;;;0.55;0.30;;;;;;;;;;4999433;28;20027;-82
2023/09/23 03:34:23;;;;;;;0.50;0.20;;;;;;;;;;4995717;28;20044;-82
2023/09/23 03:36:51;;;;;;;0.57;0.25;;;;;;;;;;5012810;28;20025;-81
2023/09/23 03:39:17;;;;;;;3.60;0.43;;;;;;;;;;5000642;28;20031;-84
2023/09/23 03:41:46;;;;;;;0.50;0.50;;;;;;;;;;4999461;28;20444;-83
2023/09/23 03:44:15;;;;;;;1.35;0.20;;;;;;;;;;4999109;28;20185;-84
2023/09/23 03:49:09;;;;;;;0.38;0.22;;;;;;;;;;4979325;28;20490;-81
2023/09/23 03:51:36;;;;;;;0.10;0.10;;;;;;;;;;4980462;28;20039;-81
2023/09/23 03:54:03;;;;;;;2.92;0.20;;;;;;;;;;4980371;28;20043;-82
2023/09/23 03:56:28;;;;;;;0.10;0.10;;;;;;;;;;4982714;28;20555;-83
2023/09/23 03:58:55;;;;;;;0.10;0.10;;;;;;;;;;4983581;28;20062;-84
2023/09/23 04:01:23;;;;;;;0.17;0.17;;;;;;;;;;4983726;28;20069;-83
2023/09/23 04:03:51;;;;;;;0.63;0.10;;;;;;;;;;4987845;28;20037;-82
2023/09/23 04:06:17;;;;;;;0.20;0.20;;;;;;;;;;4993806;28;20049;-84
2023/09/23 04:08:43;;;;;;;0.20;0.20;;;;;;;;;;4983093;28;20046;-83
2023/09/23 04:11:09;;;;;;;0.20;0.20;;;;;;;;;;4981202;28;20044;-82
2023/09/23 04:13:34;;;;;;;1.95;0.30;;;;;;;;;;4981863;28;20447;-82
2023/09/23 04:16:00;;;;;;;0.68;0.20;;;;;;;;;;4991353;28;20105;-83
2023/09/23 04:18:27;;;;;;;1.33;0.32;;;;;;;;;;4990822;28;20054;-81
2023/09/23 04:20:53;;;;;;;0.38;0.30;;;;;;;;;;4988840;28;20038;-81
2023/09/23 04:23:19;;;;;;;0.22;0.20;;;;;;;;;;4989827;28;20038;-83
2023/09/23 04:25:45;;;;;;;0.35;0.22;;;;;;;;;;4985787;28;20033;-81
2023/09/23 04:28:11;;;;;;;0.20;0.15;;;;;;;;;;4981668;28;20031;-83
2023/09/23 04:30:37;;;;;;;0.40;0.30;;;;;;;;;;4979179;28;20042;-83
2023/09/23 04:33:03;;;;;;;0.30;0.20;;;;;;;;;;4980653;28;20041;-83
2023/09/23 04:35:31;;;;;;;1.48;0.20;;;;;;;;;;4991576;28;20022;-83
2023/09/23 04:37:56;;;;;;;1.25;0.13;;;;;;;;;;4986591;28;20030;-80
2023/09/23 04:40:22;;;;;;;0.22;0.22;;;;;;;;;;4986169;28;20548;-80
2023/09/23 04:42:48;;;;;;;1.00;0.40;;;;;;;;;;4990060;28;20093;-81
2023/09/23 04:45:14;;;;;;;0.57;0.20;;;;;;;;;;4989286;28;20113;-81
2023/09/23 04:47:40;;;;;;;0.57;0.30;;;;;;;;;;4983747;28;20499;-83
2023/09/23 04:50:07;;;;;;;0.70;0.40;;;;;;;;;;4987619;28;20538;-84
2023/09/23 04:52:33;;;;;;;1.50;0.38;;;;;;;;;;4984030;28;20105;-83
2023/09/23 04:54:59;;;;;;;1.10;0.70;;;;;;;;;;4990539;28;20030;-81
2023/09/23 04:57:25;;;;;;;1.15;0.70;;;;;;;;;;4987069;28;20435;-80
2023/09/23 04:59:52;;;;;;;1.65;0.50;;;;;;;;;;4987847;28;20034;-82
2023/09/23 05:02:18;;;;;;;1.13;0.50;;;;;;;;;;4985569;28;20027;-80
2023/09/23 05:04:48;;;;;;;1.38;0.68;;;;;;;;;;4986684;28;20081;-82
2023/09/23 05:07:14;;;;;;;0.30;0.30;;;;;;;;;;4993910;28;20045;-82
2023/09/23 05:09:42;;;;;;;1.27;0.50;;;;;;;;;;4981582;28;20117;-83
2023/09/23 05:12:11;;;;;;;0.82;0.40;;;;;;;;;;4978265;28;20023;-84
2023/09/23 05:14:37;;;;;;;0.30;0.30;;;;;;;;;;4976382;28;20464;-84
2023/09/23 05:17:05;;;;;;;1.80;0.50;;;;;;;;;;4989822;28;20069;-82
2023/09/23 05:19:34;;;;;;;0.65;0.20;;;;;;;;;;4993247;28;20561;-82
2023/09/23 05:22:00;;;;;;;0.40;0.30;;;;;;;;;;4987996;28;20026;-82
2023/09/23 05:24:27;;;;;;;0.63;0.30;;;;;;;;;;4986947;28;20041;-81
2023/09/23 05:26:56;;;;;;;0.47;0.45;;;;;;;;;;4983490;28;20491;-84
2023/09/23 05:29:22;;;;;;;0.80;0.47;;;;;;;;;;4979166;28;20084;-84
2023/09/23 05:31:48;;;;;;;2.30;0.55;;;;;;;;;;4978172;28;20102;-84
2023/09/23 05:34:15;;;;;;;2.95;0.35;;;;;;;;;;4984938;28;20042;-85
2023/09/23 05:36:41;;;;;;;1.88;0.40;;;;;;;;;;4988497;28;20121;-83
2023/09/23 05:39:06;;;;;;;1.70;1.05;;;;;;;;;;4986041;28;20034;-81
2023/09/23 05:41:32;;;;;;;1.25;0.90;;;;;;;;;;4986251;28;20539;-82
2023/09/23 05:43:59;;;;;;;1.30;0.60;;;;;;;;;;4986984;28;20130;-81
2023/09/23 05:46:27;;;;;;;0.55;0.30;;;;;;;;;;4982864;28;20034;-81
2023/09/23 05:48:53;;;;;;;1.02;0.55;;;;;;;;;;4982092;28;20070;-84
2023/09/23 05:51:19;;;;;;;3.20;0.70;;;;;;;;;;4977739;28;20038;-84
2023/09/23 05:53:45;;;;;;;1.65;0.50;;;;;;;;;;4997291;28;20034;-84
2023/09/23 05:56:11;;;;;;;1.45;0.50;;;;;;;;;;4985630;28;20062;-81
2023/09/23 05:58:37;;;;;;;1.92;0.60;;;;;;;;;;4992501;28;20087;-81
2023/09/23 06:01:02;;;;;;;0.82;0.40;;;;;;;;;;4986173;28;20113;-81
2023/09/23 06:03:28;;;;;;;2.50;0.57;;;;;;;;;;4987982;28;20121;-83
2023/09/23 06:05:53;;;;;;;1.08;0.90;;;;;;;;;;4984494;28;20122;-81
2023/09/23 06:08:19;;;;;;;1.80;0.50;;;;;;;;;;4982547;28;20037;-83
2023/09/23 06:10:44;;;;;;;1.63;0.40;;;;;;;;;;4979046;28;20035;-83
2023/09/23 06:13:10;;;;;;;2.72;0.60;;;;;;;;;;4977223;28;20725;-83
2023/09/23 06:15:35;;;;;;;1.17;0.60;;;;;;;;;;4977988;28;20110;-82
2023/09/23 06:18:01;;;;;;;1.27;0.60;;;;;;;;;;4980451;28;20153;-82
2023/09/23 06:20:27;;;;;;;0.60;0.50;;;;;;;;;;4984378;28;20034;-82
2023/09/23 06:22:52;;;;;;;1.30;0.60;;;;;;;;;;4985028;28;20467;-84
2023/09/23 06:25:18;;;;;;;1.17;0.55;;;;;;;;;;4991330;28;20081;-85
2023/09/23 06:27:43;;;;;;;0.70;0.60;;;;;;;;;;4979826;28;20042;-83
2023/09/23 06:30:09;;;;;;;1.73;0.50;;;;;;;;;;4977887;28;20035;-84
2023/09/23 06:32:35;;;;;;;0.88;0.60;;;;;;;;;;4974787;28;20097;-81
2023/09/23 06:35:04;;;;;;;0.73;0.50;;;;;;;;;;4979638;28;20181;-83
2023/09/23 06:37:30;;;;;;;0.70;0.57;;;;;;;;;;4980138;28;20081;-82
2023/09/23 06:39:56;;;;;;;0.95;0.70;;;;;;;;;;4983624;28;20499;-82
2023/09/23 06:42:21;;;;;;;1.45;0.52;;;;;;;;;;4985738;28;20104;-81
2023/09/23 06:44:47;;;;;;;0.55;0.50;;;;;;;;;;4982693;28;20054;-85
2023/09/23 06:47:13;;;;;;;0.88;0.55;;;;;;;;;;4979315;28;20069;-84
2023/09/23 06:49:39;;;;;;;1.13;0.40;;;;;;;;;;4978234;28;20038;-82
2023/09/23 06:52:05;;;;;;;0.80;0.50;;;;;;;;;;4978026;28;20033;-82
2023/09/23 06:54:31;;;;;;;1.02;0.50;;;;;;;;;;4975519;28;20066;-87
2023/09/23 06:56:57;;;;;;;3.70;0.60;;;;;;;;;;4975135;28;20085;-83
2023/09/23 06:59:23;;;;;;;1.35;0.70;;;;;;;;;;4980978;28;20038;-84
2023/09/23 07:01:48;;;;;;;2.42;0.68;;;;;;;;;;4983137;28;20436;-85
2023/09/23 07:04:14;;;;;;;0.77;0.63;;;;;;;;;;4984247;28;20044;-85
2023/09/23 07:06:40;;;;;;;0.95;0.50;;;;;;;;;;4981672;28;20038;-85
2023/09/23 07:09:07;;;;;;;0.30;0.30;;;;;;;;;;4979125;28;20038;-82
2023/09/23 07:11:33;;;;;;;0.55;0.38;;;;;;;;;;4983329;28;20066;-83
2023/09/23 07:14:00;;;;;;;0.93;0.50;;;;;;;;;;4978575;28;20035;-82
2023/09/23 07:16:26;;;;;;;0.60;0.40;;;;;;;;;;4978143;28;20043;-82
2023/09/23 07:18:52;;;;;;;0.30;0.20;;;;;;;;;;4979737;28;20157;-83
2023/09/23 07:21:17;;;;;;;1.10;0.50;;;;;;;;;;4981666;28;20113;-85
2023/09/23 07:23:43;;;;;;;0.75;0.60;;;;;;;;;;4985484;28;20043;-84
2023/09/23 07:26:08;;;;;;;1.25;0.60;;;;;;;;;;4982040;28;20117;-84
2023/09/23 07:28:34;;;;;;;1.60;0.50;;;;;;;;;;4979936;28;20041;-82
2023/09/23 07:30:59;;;;;;;1.23;0.40;;;;;;;;;;4983059;28;20042;-83
2023/09/23 07:33:25;;;;;;;0.43;0.35;;;;;;;;;;4979745;28;20035;-82
2023/09/23 07:35:50;;;;;;;0.93;0.57;;;;;;;;;;4976969;28;20054;-82
2023/09/23 07:38:16;;;;;;;1.17;0.40;;;;;;;;;;4984871;28;20038;-85
2023/09/23 07:40:41;;;;;;;0.50;0.50;;;;;;;;;;4984113;28;20027;-84
2023/09/23 07:43:07;;;;;;;1.17;0.50;;;;;;;;;;4990074;28;20033;-84
2023/09/23 07:45:33;;;;;;;5.57;0.38;;;;;;;;;;4990150;28;20583;-83
2023/09/23 07:47:59;;;;;;;1.35;0.55;;;;;;;;;;4997958;28;20091;-84
2023/09/23 07:50:24;;;;;;;0.30;0.25;;;;;;;;;;4995460;28;20058;-83
2023/09/23 07:52:50;;;;;;;0.30;0.25;;;;;;;;;;4985001;28;20093;-83
2023/09/23 07:55:15;;;;;;;0.40;0.20;;;;;;;;;;4983100;28;20042;-85
2023/09/23 07:57:42;;;;;;;1.38;0.40;;;;;;;;;;4982859;28;20031;-84
2023/09/23 08:00:08;;;;;;;1.05;0.45;;;;;;;;;;4987698;28;20045;-84
2023/09/23 08:02:37;;;;;;;1.73;0.35;;;;;;;;;;4990903;28;20089;-84
2023/09/23 08:05:04;;;;;;;0.52;0.38;;;;;;;;;;4986584;28;20046;-83
2023/09/23 08:07:32;;;;;;;0.98;0.60;;;;;;;;;;4990411;28;20471;-82
2023/09/23 08:09:58;;;;;;;0.63;0.60;;;;;;;;;;4990493;28;20038;-84
2023/09/23 08:12:24;;;;;;;1.08;0.60;;;;;;;;;;4978361;28;20031;-83
2023/09/23 08:14:50;;;;;;;0.88;0.60;;;;;;;;;;4980459;28;20436;-84
2023/09/23 08:17:17;;;;;;;1.30;0.88;;;;;;;;;;4982459;28;20158;-84
2023/09/23 08:19:44;;;;;;;1.17;0.60;;;;;;;;;;4995663;28;20089;-85
2023/09/23 08:22:09;;;;;;;2.05;0.68;;;;;;;;;;4997313;28;20039;-85
2023/09/23 08:24:35;;;;;;;0.90;0.52;;;;;;;;;;4994453;28;20045;-84
2023/09/23 08:27:05;;;;;;;1.20;0.60;;;;;;;;;;4994911;28;20492;-85
2023/09/23 08:29:30;;;;;;;0.85;0.60;;;;;;;;;;4988281;28;20030;-83
2023/09/23 08:31:56;;;;;;;1.67;0.80;;;;;;;;;;4991181;28;20087;-85
2023/09/23 08:34:24;;;;;;;1.67;0.80;;;;;;;;;;4986803;28;20049;-85
2023/09/23 08:36:50;;;;;;;1.15;0.65;;;;;;;;;;5000195;28;20042;-83
2023/09/23 08:39:16;;;;;;;1.20;0.70;;;;;;;;;;4993134;28;20100;-84
2023/09/23 08:41:56;;;;;;;1.35;0.68;;;;;;;;;;4987660;28;20374;-84
2023/09/23 08:44:22;;;;;;;1.10;0.60;;;;;;;;;;4998445;28;20034;-83
2023/09/23 08:46:52;;;;;;;0.90;0.50;;;;;;;;;;4997958;28;20045;-82
2023/09/23 08:49:21;;;;;;;0.73;0.50;;;;;;;;;;4991534;28;20049;-82
2023/09/23 08:51:55;;;;;;;1.02;0.52;;;;;;;;;;4988093;28;20060;-84
2023/09/23 08:54:28;;;;;;;1.10;0.55;;;;;;;;;;4998561;28;20088;-86
2023/09/23 08:56:54;;;;;;;1.98;1.13;;;;;;;;;;4989683;28;20039;-84
2023/09/23 08:59:20;;;;;;;1.35;0.90;;;;;;;;;;4986200;28;20043;-85
2023/09/23 09:01:45;;;;;;;1.35;0.90;;;;;;;;;;4996863;28;20039;-85
2023/09/23 09:04:17;;;;;;;1.10;0.65;;;;;;;;;;4998700;28;20062;-87
2023/09/23 09:06:50;;;;;;;0.75;0.60;;;;;;;;;;4986534;28;20081;-85
2023/09/23 09:09:17;;;;;;;1.23;0.60;;;;;;;;;;4993065;28;20058;-85
2023/09/23 09:11:48;;;;;;;3.58;0.80;;;;;;;;;;4994363;28;20396;-84
2023/09/23 09:14:15;;;;;;;1.10;0.70;;;;;;;;;;4996076;28;20031;-84
2023/09/23 09:16:41;;;;;;;1.05;0.52;;;;;;;;;;4998123;28;20034;-86
2023/09/23 09:19:06;;;;;;;1.50;0.70;;;;;;;;;;4998871;28;20034;-85
2023/09/23 09:21:32;;;;;;;2.35;0.90;;;;;;;;;;4993265;28;20027;-86
2023/09/23 09:23:58;;;;;;;2.05;0.60;;;;;;;;;;4989183;28;20043;-85
2023/09/23 09:26:24;;;;;;;1.13;0.73;;;;;;;;;;4998944;28;20025;-84
2023/09/23 09:28:50;;;;;;;1.05;0.60;;;;;;;;;;4995130;28;20094;-87
2023/09/23 09:31:20;;;;;;;0.70;0.55;;;;;;;;;;4999817;28;20042;-85
2023/09/23 09:33:49;;;;;;;3.00;0.77;;;;;;;;;;5000564;28;20061;-84
2023/09/23 09:36:23;;;;;;;0.65;0.50;;;;;;;;;;4994802;28;20416;-85
2023/09/23 09:38:50;;;;;;;;;;;;;;;;;;4989974;28;20045;-86
2023/09/23 09:41:21;;;;;;;1.38;0.50;;;;;;;;;;4986888;28;19918;-83
2023/09/23 09:43:48;;;;;;;1.13;0.70;;;;;;;;;;4995262;28;20094;-86
2023/09/23 09:46:13;;;;;;;0.88;0.60;;;;;;;;;;4991694;28;20034;-87
2023/09/23 09:48:41;;;;;;;1.05;0.60;;;;;;;;;;4981420;28;20456;-87
2023/09/23 09:51:08;;;;;;;0.80;0.60;;;;;;;;;;4987836;28;20042;-86
2023/09/23 09:53:36;;;;;;;1.70;0.60;;;;;;;;;;4988824;28;20042;-88
2023/09/23 09:56:04;;;;;;;2.35;0.93;;;;;;;;;;4992328;28;20389;-82
2023/09/23 09:58:41;;;;;;;0.88;0.60;;;;;;;;;;4985838;28;20045;-82
2023/09/23 10:01:13;;;;;;;0.65;0.60;;;;;;;;;;4988266;28;20042;-83
2023/09/23 10:03:50;;;;;;;0.90;0.50;;;;;;;;;;4984155;28;20575;-83
2023/09/23 10:06:19;;;;;;;2.03;0.68;;;;;;;;;;4995656;28;20045;-83
2023/09/23 10:08:48;;;;;;;0.90;0.50;;;;;;;;;;4990073;28;20046;-85
2023/09/23 10:11:14;;;;;;;0.75;0.50;;;;;;;;;;4985236;28;20093;-84
2023/09/23 10:13:40;;;;;;;1.63;0.95;;;;;;;;;;4979930;28;20034;-84
2023/09/23 10:16:11;;;;;;;0.82;0.40;;;;;;;;;;4991573;28;20034;-85
2023/09/23 10:18:39;;;;;;;1.27;0.50;;;;;;;;;;4985239;28;20682;-84
2023/09/23 10:21:06;;;;;;;1.02;0.50;;;;;;;;;;4980460;28;20305;-83
2023/09/23 10:23:35;;;;;;;0.90;0.40;;;;;;;;;;4981938;28;20166;-84
2023/09/23 10:26:15;;;;;;;1.58;0.70;;;;;;;;;;4988776;28;20034;-83
2023/09/23 10:28:41;;;;;;;0.40;0.40;;;;;;;;;;4988221;28;20042;-84
2023/09/23 10:31:06;;;;;;;2.35;0.65;;;;;;;;;;4992528;28;20069;-84
2023/09/23 10:33:36;;;;;;;1.38;0.68;;;;;;;;;;4991408;28;20077;-84
2023/09/23 10:36:03;;;;;;;2.15;0.60;;;;;;;;;;4991876;28;20130;-84
2023/09/23 10:38:34;;;;;;;3.78;0.82;;;;;;;;;;4990792;28;20033;-84
2023/09/23 10:41:00;;;;;;;2.20;0.60;;;;;;;;;;4988096;28;20061;-84
2023/09/23 10:43:26;;;;;;;2.47;0.50;;;;;;;;;;4987215;28;20064;-85
2023/09/23 10:45:53;;;;;;;1.02;0.50;;;;;;;;;;4981699;28;20506;-85
2023/09/23 10:48:19;;;;;;;1.23;0.50;;;;;;;;;;4975077;28;20068;-84
2023/09/23 10:50:44;;;;;;;0.70;0.50;;;;;;;;;;4988489;28;20054;-84
2023/09/23 10:53:14;;;;;;;0.82;0.50;;;;;;;;;;4990555;28;20037;-83
2023/09/23 10:55:39;;;;;;;2.58;0.73;;;;;;;;;;4978149;28;20043;-84
2023/09/23 10:58:09;;;;;;;1.30;0.93;;;;;;;;;;4989706;28;20030;-82
2023/09/23 11:00:38;;;;;;;2.17;0.70;;;;;;;;;;4985571;28;20039;-83
2023/09/23 11:03:12;;;;;;;1.45;0.60;;;;;;;;;;4979981;28;20050;-83
2023/09/23 11:05:38;;;;;;;1.67;0.68;;;;;;;;;;4992838;28;20038;-82
2023/09/23 11:08:12;;;;;;;1.27;0.50;;;;;;;;;;4987196;28;20127;-82
2023/09/23 11:10:42;;;;;;;1.48;0.60;;;;;;;;;;4981945;28;20093;-83
2023/09/23 11:13:10;;;;;;;2.40;0.70;;;;;;;;;;4980344;28;20046;-84
2023/09/23 11:15:40;;;;;;;1.60;0.63;;;;;;;;;;4989766;28;20035;-84
2023/09/23 11:18:10;;;;;;;0.80;0.57;;;;;;;;;;4988854;28;20481;-83
2023/09/23 11:20:38;;;;;;;2.58;1.08;;;;;;;;;;4996151;28;20566;-85
2023/09/23 11:23:05;;;;;;;1.50;0.50;;;;;;;;;;4996110;28;20030;-83
2023/09/23 11:25:44;;;;;;;0.68;0.60;;;;;;;;;;4990842;28;20039;-83
2023/09/23 11:28:23;;;;;;;0.95;0.60;;;;;;;;;;4987188;28;20043;-83
2023/09/23 11:30:50;;;;;;;1.27;0.50;;;;;;;;;;4996735;28;20027;-83
2023/09/23 11:33:16;;;;;;;1.75;0.70;;;;;;;;;;4995905;28;20456;-84
2023/09/23 11:35:43;;;;;;;1.83;0.55;;;;;;;;;;4985747;28;20035;-84
2023/09/23 11:38:09;;;;;;;1.35;0.80;;;;;;;;;;4983260;28;20038;-83
2023/09/23 11:40:35;;;;;;;2.95;0.85;;;;;;;;;;4996304;28;20061;-82
2023/09/23 11:43:02;;;;;;;2.78;0.60;;;;;;;;;;4988342;28;20041;-84
2023/09/23 11:45:27;;;;;;;2.17;0.60;;;;;;;;;;4982417;28;20046;-83
2023/09/23 11:47:56;;;;;;;2.85;0.60;;;;;;;;;;4992809;28;20034;-83
2023/09/23 11:50:21;;;;;;;2.47;0.77;;;;;;;;;;4990860;28;20038;-84
2023/09/23 11:52:47;;;;;;;1.92;0.80;;;;;;;;;;4985219;28;20094;-83
2023/09/23 11:55:13;;;;;;;1.45;0.70;;;;;;;;;;4982807;28;20484;-85
2023/09/23 11:57:41;;;;;;;1.02;0.63;;;;;;;;;;4993587;28;20034;-83
2023/09/23 12:00:09;;;;;;;1.83;0.90;;;;;;;;;;4989507;28;20037;-84
2023/09/23 12:02:39;;;;;;;4.28;1.30;;;;;;;;;;4986183;28;20034;-83
2023/09/23 12:05:07;;;;;;;1.45;0.70;;;;;;;;;;4992102;28;20042;-84
2023/09/23 12:07:33;;;;;;;2.92;1.50;;;;;;;;;;4996586;28;20041;-83
2023/09/23 12:09:58;;;;;;;2.60;1.15;;;;;;;;;;4994001;28;20062;-83
2023/09/23 12:12:24;;;;;;;2.47;0.80;;;;;;;;;;4991944;28;20097;-84
2023/09/23 12:14:50;;;;;;;2.15;0.70;;;;;;;;;;4988507;28;20117;-83
2023/09/23 12:17:16;;;;;;;1.13;0.80;;;;;;;;;;4986967;28;20038;-85
2023/09/23 12:19:45;;;;;;;2.38;0.90;;;;;;;;;;4981637;28;20050;-84
2023/09/23 12:22:17;;;;;;;4.47;1.60;;;;;;;;;;4996824;28;20069;-84
2023/09/23 12:24:43;;;;;;;2.40;1.00;;;;;;;;;;4987279;28;20030;-84
2023/09/23 12:27:09;;;;;;;2.83;1.10;;;;;;;;;;4981596;28;20515;-83
2023/09/23 12:29:35;;;;;;;2.33;0.70;;;;;;;;;;4991996;28;20050;-83
2023/09/23 12:32:00;;;;;;;1.33;1.10;;;;;;;;;;4995296;28;20034;-83
2023/09/23 12:34:26;;;;;;;4.63;1.30;;;;;;;;;;4984252;28;20043;-84
2023/09/23 12:36:52;;;;;;;2.83;1.10;;;;;;;;;;4985799;28;20095;-85
2023/09/23 12:39:17;;;;;;;3.97;1.70;;;;;;;;;;5009380;28;20038;-84
2023/09/23 12:41:43;;;;;;;1.02;0.70;;;;;;;;;;4987168;28;20050;-84
2023/09/23 12:44:09;;;;;;;3.17;0.90;;;;;;;;;;4981696;28;20045;-82
2023/09/23 12:46:34;;;;;;;2.08;1.08;;;;;;;;;;4990556;28;20045;-82
2023/09/23 12:49:00;;;;;;;3.70;2.03;;;;;;;;;;4994241;28;20113;-86
2023/09/23 12:51:28;;;;;;;4.45;2.50;;;;;;;;;;4981696;28;20042;-84
2023/09/23 12:53:54;;;;;;;2.17;1.40;;;;;;;;;;4981176;28;20119;-83
2023/09/23 12:56:21;;;;;;;2.72;1.30;;;;;;;;;;4999296;28;20420;-82
2023/09/23 12:58:50;;;;;;;6.55;3.33;;;;;;;;;;4993100;28;20069;-84
2023/09/23 13:01:16;;;;;;;4.82;2.03;;;;;;;;;;5018138;28;20038;-83
2023/09/23 13:03:41;;;;;;;3.65;1.90;;;;;;;;;;5016867;28;20047;-82
2023/09/23 13:06:07;;;;;;;1.63;1.20;;;;;;;;;;4995992;28;20042;-84
2023/09/23 13:08:33;;;;;;;1.42;0.90;;;;;;;;;;4990800;28;20049;-82
2023/09/23 13:11:00;;;;;;;2.67;0.98;;;;;;;;;;4996075;28;20043;-84
2023/09/23 13:13:26;;;;;;;2.60;1.20;;;;;;;;;;5001074;28;20034;-83
2023/09/23 13:15:52;;;;;;;1.50;0.90;;;;;;;;;;4999110;28;20439;-83
2023/09/23 13:18:20;;;;;;;2.38;1.10;;;;;;;;;;5002682;28;20057;-83
2023/09/23 13:20:46;;;;;;;1.10;1.00;;;;;;;;;;5001115;28;20114;-83
2023/09/23 13:23:12;;;;;;;1.63;1.00;;;;;;;;;;4995547;28;20035;-83
2023/09/23 13:25:39;;;;;;;1.85;1.00;;;;;;;;;;4989819;28;20094;-83
2023/09/23 13:28:05;;;;;;;3.42;0.98;;;;;;;;;;5001487;28;20547;-83
2023/09/23 13:30:31;;;;;;;2.35;0.80;;;;;;;;;;4995050;28;20042;-82
2023/09/23 13:32:56;;;;;;;2.20;1.00;;;;;;;;;;5002456;28;20467;-82
2023/09/23 13:35:22;;;;;;;1.67;0.68;;;;;;;;;;4992117;28;20030;-85
2023/09/23 13:37:47;;;;;;;1.55;0.80;;;;;;;;;;4999646;28;20049;-84
2023/09/23 13:40:13;;;;;;;1.27;0.68;;;;;;;;;;4993852;28;20055;-84
2023/09/23 13:42:39;;;;;;;3.13;0.95;;;;;;;;;;4988003;28;20110;-83
2023/09/23 13:45:05;;;;;;;1.50;1.00;;;;;;;;;;5002238;28;20062;-82
2023/09/23 13:47:33;;;;;;;1.90;0.88;;;;;;;;;;4997011;28;20046;-82
2023/09/23 13:50:02;;;;;;;1.27;1.00;;;;;;;;;;4990620;28;20125;-83
2023/09/23 13:52:27;;;;;;;1.75;1.02;;;;;;;;;;5003594;28;20057;-83
2023/09/23 13:54:53;;;;;;;1.40;1.10;;;;;;;;;;4998786;28;20073;-83
2023/09/23 13:57:18;;;;;;;5.38;1.40;;;;;;;;;;4994212;28;20041;-83
2023/09/23 13:59:44;;;;;;;4.15;1.60;;;;;;;;;;4988203;28;20050;-82
2023/09/23 14:02:14;;;;;;;2.53;1.40;;;;;;;;;;5001488;28;20101;-83
2023/09/23 14:04:39;;;;;;;2.10;1.20;;;;;;;;;;4995896;28;20030;-82
2023/09/23 14:07:05;;;;;;;2.03;0.95;;;;;;;;;;4988580;28;20045;-82
2023/09/23 14:09:30;;;;;;;2.47;1.00;;;;;;;;;;4998681;28;20065;-83
2023/09/23 14:11:56;;;;;;;1.88;1.00;;;;;;;;;;4997168;28;20023;-83
2023/09/23 14:14:21;;;;;;;2.13;1.00;;;;;;;;;;4989664;28;20069;-82
2023/09/23 14:16:47;;;;;;;1.27;0.90;;;;;;;;;;4991737;28;20049;-84
2023/09/23 14:19:13;;;;;;;1.63;0.80;;;;;;;;;;4999177;28;20042;-83
2023/09/23 14:21:38;;;;;;;0.77;0.55;;;;;;;;;;4993640;28;20046;-83
2023/09/23 14:24:04;;;;;;;1.70;1.10;;;;;;;;;;4989191;28;20043;-82
2023/09/23 14:26:32;;;;;;;3.10;0.90;;;;;;;;;;4998596;28;20046;-83
2023/09/23 14:28:58;;;;;;;1.58;0.90;;;;;;;;;;4996763;28;20052;-83
2023/09/23 14:31:23;;;;;;;0.57;0.50;;;;;;;;;;4990854;28;20042;-84
2023/09/23 14:33:49;;;;;;;0.80;0.60;;;;;;;;;;4999841;28;20105;-83
2023/09/23 14:36:14;;;;;;;1.60;0.80;;;;;;;;;;4990717;28;20039;-82
2023/09/23 14:38:40;;;;;;;2.10;0.73;;;;;;;;;;4993441;28;20074;-83
2023/09/23 14:41:07;;;;;;;0.88;0.70;;;;;;;;;;4988184;28;20054;-83
2023/09/23 14:43:32;;;;;;;1.55;0.85;;;;;;;;;;5001428;28;20045;-82